Barbados Meteorological Services
Auto gathered TAF list
Powered by Apparatus software
For Flight WS2513
Contact Number 1-(246)-535-0021/2/3/4/5/6
WEB: http://www.barbadosweather.org

**********************************************

2017/04/24 18:38
TAF TXKF 241733Z 2418/2518 13014KT 9999 SCT015 BKN300


**********************************************
2017/04/24 18:39
TAF TLPL 241700Z 2418/2518 11018KT 9999 SCT026


**********************************************
2017/04/24 18:27
TAF TJSJ 241720Z 2418/2518 11011G18KT P6SM VCSH SCT025 BKN050 BKN100
TEMPO 2418/2422 VRB14G22KT 5SM SHRA BKN025
FM242230 12008KT P6SM FEW030 SCT060 BKN100
FM250530 14003KT P6SM VCSH SCT022 BKN040 OVC100
FM251450 12011KT P6SM -RA SCT025 BKN060 BKN120


**********************************************
2017/04/24 18:03
TAF TAF TFFR 241700Z 2418/2518 12016KT 9999 BKN026 PROB30 2418/2502 4000 SHRA SCT015TCU


**********************************************
2017/04/24 18:36
TAF TBPB 241700Z 2418/2518 11015KT 9999 SCT018


**********************************************
2017/04/24 18:46
TAF TAPA 241700Z 2418/2518 11012KT 9999 SCT018 BKN034 PROB40
TEMPO 2418/2512 SHRA


**********************************************
2017/04/24 21:27
TAF
AMD KPHL 242123Z 2421/2524 07012KT P6SM VCSH OVC060
TEMPO 2422/2424 6SM -SHRA BR SCT025 OVC050
FM250000 07010KT 6SM -SHRA BR OVC025
FM250300 06012KT P6SM -SHRA OVC015
FM250600 06012G20KT 5SM -SHRA BR OVC008
FM250900 06014G21KT 4SM -RA BR OVC007
FM251500 07014G24KT 1 1/2SM RA BR OVC003


**********************************************
2017/04/24 19:33
TAF
AMD KORF 241926Z 2419/2518 06014G22KT 5SM -RA BR OVC005
TEMPO 2419/2422 2SM -RA BR OVC002
FM250100 07015G24KT 5SM -RA OVC025
FM250400 08016G24KT 6SM -RA OVC015
FM250600 09016G25KT 5SM SHRA OVC010 WS020/10050KT
FM250900 09020G31KT 6SM SHRA OVC008
FM251400 10014G22KT 3SM SHRA OVC006
FM251600 10011KT 5SM SHRA OVC010


**********************************************
2017/04/24 22:54
TAF
AMD KJFK 242149Z 2422/2524 10008KT P6SM -RA SCT050 BKN070
FM250000 07010KT 6SM -RA BR SCT030 OVC060
FM250600 06011KT 4SM -RA BR SCT007 BKN015
FM250900 06014G21KT 2SM -RA BR BKN007 OVC010
FM251400 06018G28KT 1SM -RA BR OVC006


**********************************************
2017/04/24 21:06
TAF
AMD KIAD 242101Z 2421/2524 02009KT 3SM -RA OVC025
FM250000 06010KT 5SM -RA OVC008
FM250500 05009KT 3SM -RA OVC003
FM251600 05012KT 5SM -RA OVC008


**********************************************
2017/04/24 22:54
TAF
AMD KEWR 242149Z 2422/2524 13005KT P6SM -RA SCT060 BKN070
FM250000 10005KT P6SM -RA SCT030 BKN060
FM250200 07008KT 6SM -RA BR SCT015 OVC060
FM250600 05011KT 4SM -RA BR SCT007 BKN015
FM250900 04013G20KT 2SM -RA BR BKN007 OVC010
FM251500 06015G25KT 1SM -RA BR OVC006


**********************************************
2017/04/24 18:24
TAF KCHS 241720Z 2418/2518 17011KT P6SM VCTS FEW020 OVC035CB
TEMPO 2418/2420 VRB15G25KT 2SM TSRA BKN015CB
FM242200 24009KT P6SM VCSH SCT020 BKN050
FM250600 27009KT P6SM SCT009 BKN015
FM250900 29010KT P6SM OVC007
FM251500 30012G19KT P6SM SCT007 BKN015


**********************************************
2017/04/24 20:22
TAF
AMD KBOS 242014Z 2420/2524 10010KT P6SM BKN250
FM250200 12005KT P6SM BKN250
FM250900 06007KT P6SM OVC050
FM251500 07012G22KT 2SM -RA BR OVC008
FM252100 07014G22KT 1/2SM -RA FG OVC003


**********************************************
2017/04/24 21:39
TAF CYYZ 242038Z 2421/2524 09010G20KT P6SM SCT240
BECMG 2500/2501 09012KT
FM251100 09012KT P6SM SCT030 BKN070
FM251400 09010G20KT P6SM -SHRA SCT008 OVC020
FM251800 09010G20KT 3SM -SHRA BR OVC006
FM252300 09012KT 5SM BR BKN008 OVC012
RMK NXT FCST BY 250000Z


**********************************************
2017/04/24 21:42
TAF CYUL 242038Z 2421/2518 VRB03KT P6SM FEW240
BECMG 2507/2509 04012G22KT
FM251600 14013G23KT P6SM BKN030 OVC120
RMK NXT FCST BY 250000Z


**********************************************
2017/04/24 21:42
TAF CYOW 242038Z 2421/2518 07008KT P6SM FEW200
BECMG 2500/2502 08012KT
FM251600 10015KT P6SM OVC030
RMK NXT FCST BY 250000Z


**********************************************
2017/04/24 18:42
TAF CYMX 241739Z 2418/2518 08008KT P6SM FEW040
FM250000 05008KT P6SM FEW070
BECMG 2510/2512 05010G20KT
FM251600 14010G20KT P6SM BKN030 OVC120
RMK NXT FCST BY 250000Z


**********************************************